הכול
Vidsel Air Base Airport (Vidsel) ESPE מזג אוויר
|
Vidsel (ESPE)
שמים בהירים
רוחות קלות |
|
1 °C |
ESPE Terminal Area Forecast
| Date | Time (CEST) | Flight Rules | Wind Dir. | Speed | Type | Height AGL (ft) | Visibility | Remarks | ||||||
|---|---|---|---|---|---|---|---|---|---|---|---|---|---|---|
Recent ESPE METAR history
| Date | Time (CEST) | Flight Rules | Wind Dir. | Speed | Type | Height AGL (ft) | Visibility | Temp (°C) | Temp (°F) | Dew Point (°C) | Dew Point (°F) | Rel. Humid. | Pressure | Density Altitude | Remarks |
|---|---|---|---|---|---|---|---|---|---|---|---|---|---|---|---|
| 06-ספט | 03:20 | VFR | 310° | 5 kt | 10000 meters | 1° | 33° | 0° | 32° | 93% | 1008 mb | -929 ft | |||
| 06-ספט | 02:50 | VFR | 320° | 5 kt | 10000 meters | 2° | 35° | 0° | 32° | 87% | 1008 mb | -809 ft | |||
| 06-ספט | 02:20 | VFR | 330° | 6 kt | 10000 meters | 3° | 37° | 1° | 33° | 87% | 1008 mb | -689 ft | |||
| 06-ספט | 01:50 | VFR | 340° | 6 kt | 10000 meters | 3° | 37° | 1° | 33° | 87% | 1008 mb | -689 ft | |||
| 06-ספט | 01:20 | VFR | 290° | 6 kt | 10000 meters | 3° | 37° | 1° | 33° | 87% | 1007 mb | -660 ft | |||
| 06-ספט | 00:50 | VFR | 310° | 5 kt | 10000 meters | 3° | 37° | 1° | 33° | 87% | 1007 mb | -660 ft | |||
| 06-ספט | 00:20 | VFR | 330° | 5 kt | 10000 meters | 3° | 37° | 1° | 33° | 87% | 1007 mb | -660 ft | |||
| 05-ספט | 23:50 | VFR | 310° | 4 kt | 10000 meters | 3° | 37° | 1° | 33° | 87% | 1007 mb | -660 ft | |||
| 05-ספט | 23:20 | VFR | 310° | 3 kt | 10000 meters | 3° | 37° | 2° | 35° | 93% | 1006 mb | -630 ft | |||
| 05-ספט | 22:50 | VFR | 330° | 4 kt | 10000 meters | 3° | 37° | 2° | 35° | 93% | 1006 mb | -630 ft | |||
| 05-ספט | 22:20 | VFR | 320° | 3 kt | 10000 meters | 3° | 37° | 2° | 35° | 93% | 1006 mb | -630 ft | |||
| 05-ספט | 21:50 | VFR | 320° | 4 kt | 10000 meters | 4° | 39° | 2° | 35° | 87% | 1005 mb | -481 ft | |||
| 05-ספט | 21:20 | VFR | 340° | 3 kt | 10000 meters | 6° | 42° | 2° | 35° | 75% | 1005 mb | -241 ft | |||
| 05-ספט | 20:50 | VFR | 360° | 5 kt | 10000 meters | 7° | 44° | 2° | 35° | 70% | 1005 mb | -121 ft | |||
| 05-ספט | 20:20 | VFR | 360° | 5 kt | 10000 meters | 8° | 46° | 2° | 35° | 66% | 1004 mb | 29 ft | |||
| 05-ספט | 19:50 | VFR | 10° | 4 kt | 10000 meters | 9° | 48° | 2° | 35° | 61% | 1004 mb | 149 ft | |||
| 05-ספט | 19:20 | VFR | 340° | 5 kt | 10000 meters | 9° | 48° | 2° | 35° | 61% | 1003 mb | 178 ft | |||
| 05-ספט | 18:50 | VFR | 350° | 6 kt | 10000 meters | 10° | 50° | 1° | 33° | 53% | 1003 mb | 298 ft | |||
| 05-ספט | 18:20 | VFR | 360° | 5 kt | Few |
20,000 |
10000 meters | 11° | 51° | 2° | 35° | 54% | 1003 mb | 418 ft | |
| 05-ספט | 17:50 | VFR | 10° | 8 kt | 10000 meters | 11° | 51° | 0° | 32° | 47% | 1002 mb | 448 ft | |||
| 05-ספט | 17:20 | VFR | 20° | 7 kt | 10000 meters | 12° | 53° | 2° | 35° | 50% | 1002 mb | 568 ft | |||
| 05-ספט | 16:50 | VFR | 350° | 7 kt | 10000 meters | 12° | 53° | 3° | 37° | 54% | 1002 mb | 568 ft | |||
| 05-ספט | 16:20 | VFR | 10° | 9 kt | 10000 meters | 12° | 53° | 3° | 37° | 54% | 1002 mb | 568 ft | |||
| 05-ספט | 15:50 | VFR | 10° | 7 kt | 10000 meters | 12° | 53° | 3° | 37° | 54% | 1002 mb | 568 ft |
כניסה לאתר
| אין תמיכה בדפדפן שלך. שדרג את הדפדפן שלך |
